Tampa, FL

10:22 PM EST on December 19, 2014 (GMT -0500)
MacDill Air Force Base | Change Station
CLOSE
Current Station
Airport
Location: Tampa Macdill AFB,
Elevation: 13 ft
Nearby Weather Stations

Elev 13 ft 27.85 °N, 82.52 °W | Updated 24 minutes ago

Partly Cloudy
Partly Cloudy
55 °F
Feels Like 55 °F
N
6
Wind Variable Wind from ENE

Today
High -- | Low -- °F
--% Chance of Precip.
Yesterday
High -- | Low -- °F
Precip. -- in
7:15 AM 5:38 PM
Waning Crescent, 5% visible
Pressure 30.10 in
Visibility 10.0 miles
Clouds Scattered Clouds 21000 ft
Dew Point 51 °F
Humidity 86%
Rainfall 0.00 in
Snow Depth Not available.
UV 0 out of 12
Pollen 5.60 out of 12
Air Quality Not available.
Flu Activity Not available.
METAR KMCF 200258Z AUTO 06005KT 10SM SCT210 13/11 A3009 RMK AO2 SLP193 T01300107 52009 $

More Conditions Fewer Conditions

Pressure 30.10 in
Visibility 10.0 miles
Clouds Scattered Clouds 21000 ft
Dew Point 51 °F
Humidity 86%
Rainfall 0.00 in
Snow Depth Not available.
UV 0 out of 12
Pollen 5.60 out of 12
Air Quality Not available.
Flu Activity Not available.
METAR KMCF 200258Z AUTO 06005KT 10SM SCT210 13/11 A3009 RMK AO2 SLP193 T01300107 52009 $

More Conditions Fewer Conditions

10-Day Weather Forecast

Almanac

Astronomy

Dec. 19, 2014 Rise Set
Actual Time
Civil Twilight
Nautical Twilight
Astronomical Twilight
Moon
Length of Visible Light
Length of Day
Tomorrow will be .
, % of the Moon is Illuminated

Today's Extremes

State Highs State Lows

Community

WunderPhotos

Upload Photos

1,779,123 photos uploaded!

WunderBlogs® & News

Nearby

Air Quality

  Air Quality AQ Index Pollutant
Not available.

Snow Depth

Station Depth Elevation

Earthquake Activity

City Distance Mag. Time & Date
Minimum magnitude displayed is 2.5.

Coastal Water Temperatures

Place Temperature

Nearby Weather Stations